sensor_id;sensor_type;location;lat;lon;timestamp;temperature;humidity
8402;DHT22;4238;48.404;9.498;2023-04-24T04:01:53;8.70;99.90
8402;DHT22;4238;48.404;9.498;2023-04-24T04:04:20;8.70;99.90
8402;DHT22;4238;48.404;9.498;2023-04-24T04:06:47;8.80;99.90
8402;DHT22;4238;48.404;9.498;2023-04-24T04:09:15;8.80;99.90
8402;DHT22;4238;48.404;9.498;2023-04-24T04:11:42;8.80;99.90
8402;DHT22;4238;48.404;9.498;2023-04-24T04:14:09;8.90;99.90
8402;DHT22;4238;48.404;9.498;2023-04-24T04:16:36;8.80;99.90
8402;DHT22;4238;48.404;9.498;2023-04-24T04:19:06;8.80;99.90
8402;DHT22;4238;48.404;9.498;2023-04-24T04:21:33;8.80;99.90
8402;DHT22;4238;48.404;9.498;2023-04-24T04:24:00;8.70;99.90
8402;DHT22;4238;48.404;9.498;2023-04-24T04:26:27;8.80;99.90
8402;DHT22;4238;48.404;9.498;2023-04-24T04:28:58;8.80;99.90
8402;DHT22;4238;48.404;9.498;2023-04-24T04:31:26;8.70;99.90
8402;DHT22;4238;48.404;9.498;2023-04-24T04:33:53;8.70;99.90
8402;DHT22;4238;48.404;9.498;2023-04-24T04:36:21;8.60;99.90
8402;DHT22;4238;48.404;9.498;2023-04-24T04:38:49;8.70;99.90
8402;DHT22;4238;48.404;9.498;2023-04-24T04:41:16;8.80;99.90
8402;DHT22;4238;48.404;9.498;2023-04-24T04:43:43;8.80;99.90
8402;DHT22;4238;48.404;9.498;2023-04-24T04:46:12;8.90;99.90
8402;DHT22;4238;48.404;9.498;2023-04-24T04:48:39;9.00;99.90
8402;DHT22;4238;48.404;9.498;2023-04-24T04:51:06;8.90;99.90
8402;DHT22;4238;48.404;9.498;2023-04-24T04:53:35;9.00;99.90
8402;DHT22;4238;48.404;9.498;2023-04-24T04:56:02;9.00;99.90
8402;DHT22;4238;48.404;9.498;2023-04-24T04:58:29;8.80;99.90
8402;DHT22;4238;48.404;9.498;2023-04-24T05:00:56;8.90;99.90
8402;DHT22;4238;48.404;9.498;2023-04-24T05:03:24;9.00;99.90
8402;DHT22;4238;48.404;9.498;2023-04-24T05:05:51;8.80;99.90
8402;DHT22;4238;48.404;9.498;2023-04-24T05:08:18;8.70;99.90
8402;DHT22;4238;48.404;9.498;2023-04-24T05:10:47;8.90;99.90
8402;DHT22;4238;48.404;9.498;2023-04-24T05:13:14;8.90;99.90
8402;DHT22;4238;48.404;9.498;2023-04-24T05:15:41;9.10;99.90
8402;DHT22;4238;48.404;9.498;2023-04-24T05:18:08;9.00;99.90
8402;DHT22;4238;48.404;9.498;2023-04-24T05:20:35;8.90;99.90
8402;DHT22;4238;48.404;9.498;2023-04-24T05:23:03;9.10;99.90
8402;DHT22;4238;48.404;9.498;2023-04-24T05:25:30;9.10;99.90
8402;DHT22;4238;48.404;9.498;2023-04-24T05:28:02;9.10;99.90
8402;DHT22;4238;48.404;9.498;2023-04-24T05:30:29;9.20;99.90
8402;DHT22;4238;48.404;9.498;2023-04-24T05:32:56;9.10;99.90
8402;DHT22;4238;48.404;9.498;2023-04-24T05:35:23;9.00;92.50
8402;DHT22;4238;48.404;9.498;2023-04-24T05:37:50;8.70;83.40
8402;DHT22;4238;48.404;9.498;2023-04-24T05:40:17;8.70;83.90
8402;DHT22;4238;48.404;9.498;2023-04-24T05:42:44;8.60;92.40
8402;DHT22;4238;48.404;9.498;2023-04-24T05:45:12;8.50;96.50
8402;DHT22;4238;48.404;9.498;2023-04-24T05:47:42;8.40;99.90
8402;DHT22;4238;48.404;9.498;2023-04-24T05:50:12;8.40;99.80
8402;DHT22;4238;48.404;9.498;2023-04-24T05:52:39;8.40;99.90
8402;DHT22;4238;48.404;9.498;2023-04-24T05:55:06;8.40;99.90
8402;DHT22;4238;48.404;9.498;2023-04-24T05:57:33;8.30;99.90
8402;DHT22;4238;48.404;9.498;2023-04-24T06:00:00;8.20;99.90
8402;DHT22;4238;48.404;9.498;2023-04-24T06:02:28;8.20;99.90
8402;DHT22;4238;48.404;9.498;2023-04-24T06:04:57;8.20;99.90
8402;DHT22;4238;48.404;9.498;2023-04-24T06:07:25;8.20;99.90
8402;DHT22;4238;48.404;9.498;2023-04-24T06:09:52;8.20;99.90
8402;DHT22;4238;48.404;9.498;2023-04-24T06:12:20;8.20;99.90
8402;DHT22;4238;48.404;9.498;2023-04-24T06:14:47;8.30;95.40
8402;DHT22;4238;48.404;9.498;2023-04-24T06:17:15;8.30;98.80
8402;DHT22;4238;48.404;9.498;2023-04-24T06:19:44;8.30;98.60
8402;DHT22;4238;48.404;9.498;2023-04-24T06:22:11;8.30;99.90
8402;DHT22;4238;48.404;9.498;2023-04-24T06:24:39;8.40;98.30
8402;DHT22;4238;48.404;9.498;2023-04-24T06:27:06;8.30;94.50
8402;DHT22;4238;48.404;9.498;2023-04-24T06:29:33;8.40;96.10
8402;DHT22;4238;48.404;9.498;2023-04-24T06:32:00;8.50;95.20
8402;DHT22;4238;48.404;9.498;2023-04-24T06:34:27;8.60;97.90
8402;DHT22;4238;48.404;9.498;2023-04-24T06:36:55;8.70;94.70
8402;DHT22;4238;48.404;9.498;2023-04-24T06:39:22;8.90;94.60
8402;DHT22;4238;48.404;9.498;2023-04-24T06:41:49;9.00;89.50
8402;DHT22;4238;48.404;9.498;2023-04-24T06:44:16;9.00;80.10
8402;DHT22;4238;48.404;9.498;2023-04-24T06:46:43;8.80;77.90
8402;DHT22;4238;48.404;9.498;2023-04-24T06:49:10;8.90;85.30
8402;DHT22;4238;48.404;9.498;2023-04-24T06:51:37;8.90;82.80
8402;DHT22;4238;48.404;9.498;2023-04-24T06:54:05;8.90;74.20
8402;DHT22;4238;48.404;9.498;2023-04-24T06:56:32;8.90;74.30
8402;DHT22;4238;48.404;9.498;2023-04-24T06:58:59;9.20;84.60
8402;DHT22;4238;48.404;9.498;2023-04-24T07:01:26;9.60;68.40
8402;DHT22;4238;48.404;9.498;2023-04-24T07:03:53;9.90;48.80
8402;DHT22;4238;48.404;9.498;2023-04-24T07:06:20;10.30;42.00
8402;DHT22;4238;48.404;9.498;2023-04-24T07:08:49;10.70;13.30
8402;DHT22;4238;48.404;9.498;2023-04-24T07:11:17;11.10;1.00
8402;DHT22;4238;48.404;9.498;2023-04-24T07:13:44;11.40;1.00
8402;DHT22;4238;48.404;9.498;2023-04-24T07:16:11;11.70;1.00
8402;DHT22;4238;48.404;9.498;2023-04-24T07:18:38;11.80;1.00
8402;DHT22;4238;48.404;9.498;2023-04-24T07:21:05;12.00;1.00
8402;DHT22;4238;48.404;9.498;2023-04-24T07:23:32;12.20;1.00
8402;DHT22;4238;48.404;9.498;2023-04-24T07:25:59;12.60;1.00
8402;DHT22;4238;48.404;9.498;2023-04-24T07:28:27;12.40;99.90
8402;DHT22;4238;48.404;9.498;2023-04-24T07:30:56;12.00;1.00
8402;DHT22;4238;48.404;9.498;2023-04-24T07:33:24;11.60;1.00
8402;DHT22;4238;48.404;9.498;2023-04-24T07:35:51;11.40;1.00
8402;DHT22;4238;48.404;9.498;2023-04-24T07:38:18;11.10;1.00
8402;DHT22;4238;48.404;9.498;2023-04-24T07:40:47;10.90;1.00
8402;DHT22;4238;48.404;9.498;2023-04-24T07:43:14;10.70;1.00
8402;DHT22;4238;48.404;9.498;2023-04-24T07:45:42;10.60;1.00
8402;DHT22;4238;48.404;9.498;2023-04-24T07:48:09;10.30;1.00
8402;DHT22;4238;48.404;9.498;2023-04-24T07:50:36;10.20;1.00
8402;DHT22;4238;48.404;9.498;2023-04-24T07:53:03;10.10;1.00
8402;DHT22;4238;48.404;9.498;2023-04-24T07:55:30;10.00;1.00
8402;DHT22;4238;48.404;9.498;2023-04-24T07:57:57;10.10;1.00
8402;DHT22;4238;48.404;9.498;2023-04-24T08:00:24;10.20;1.00
8402;DHT22;4238;48.404;9.498;2023-04-24T08:02:52;10.10;1.00
8402;DHT22;4238;48.404;9.498;2023-04-24T08:05:19;10.00;3.00
8402;DHT22;4238;48.404;9.498;2023-04-24T08:07:46;9.90;16.50
8402;DHT22;4238;48.404;9.498;2023-04-24T08:10:14;9.70;18.60
8402;DHT22;4238;48.404;9.498;2023-04-24T08:12:41;9.50;16.00
8402;DHT22;4238;48.404;9.498;2023-04-24T08:15:09;9.20;34.50
8402;DHT22;4238;48.404;9.498;2023-04-24T08:17:36;9.00;11.70
8402;DHT22;4238;48.404;9.498;2023-04-24T08:20:06;8.90;18.10
8402;DHT22;4238;48.404;9.498;2023-04-24T08:22:38;8.80;2.30
8402;DHT22;4238;48.404;9.498;2023-04-24T08:25:06;8.80;18.40
8402;DHT22;4238;48.404;9.498;2023-04-24T08:27:34;9.10;13.10
8402;DHT22;4238;48.404;9.498;2023-04-24T08:30:03;9.20;8.70
8402;DHT22;4238;48.404;9.498;2023-04-24T08:32:30;9.60;28.30
8402;DHT22;4238;48.404;9.498;2023-04-24T08:34:57;9.90;1.00
8402;DHT22;4238;48.404;9.498;2023-04-24T08:37:27;10.00;1.00
8402;DHT22;4238;48.404;9.498;2023-04-24T08:39:54;9.90;1.00
8402;DHT22;4238;48.404;9.498;2023-04-24T08:42:23;10.00;1.00
8402;DHT22;4238;48.404;9.498;2023-04-24T08:44:50;9.90;1.00
8402;DHT22;4238;48.404;9.498;2023-04-24T08:47:18;9.80;1.00
8402;DHT22;4238;48.404;9.498;2023-04-24T08:49:48;9.50;1.00
8402;DHT22;4238;48.404;9.498;2023-04-24T08:52:16;9.40;1.00
8402;DHT22;4238;48.404;9.498;2023-04-24T08:54:47;9.30;1.00
8402;DHT22;4238;48.404;9.498;2023-04-24T08:57:15;9.30;1.00
8402;DHT22;4238;48.404;9.498;2023-04-24T08:59:43;9.70;1.00
8402;DHT22;4238;48.404;9.498;2023-04-24T09:02:11;10.40;1.00
8402;DHT22;4238;48.404;9.498;2023-04-24T09:04:39;10.50;1.00
8402;DHT22;4238;48.404;9.498;2023-04-24T09:07:08;10.50;1.00
8402;DHT22;4238;48.404;9.498;2023-04-24T09:09:36;10.60;1.00
8402;DHT22;4238;48.404;9.498;2023-04-24T09:12:06;10.40;99.90
8402;DHT22;4238;48.404;9.498;2023-04-24T09:14:35;10.30;1.00
8402;DHT22;4238;48.404;9.498;2023-04-24T09:17:05;10.20;1.00
8402;DHT22;4238;48.404;9.498;2023-04-24T09:19:32;10.20;1.00
8402;DHT22;4238;48.404;9.498;2023-04-24T09:21:59;10.10;1.00
8402;DHT22;4238;48.404;9.498;2023-04-24T09:24:26;10.10;1.00
8402;DHT22;4238;48.404;9.498;2023-04-24T09:26:57;10.10;1.00
8402;DHT22;4238;48.404;9.498;2023-04-24T09:29:25;10.10;1.00
8402;DHT22;4238;48.404;9.498;2023-04-24T09:31:52;10.10;1.00
8402;DHT22;4238;48.404;9.498;2023-04-24T09:34:21;10.20;1.00
8402;DHT22;4238;48.404;9.498;2023-04-24T09:36:49;10.20;1.00
8402;DHT22;4238;48.404;9.498;2023-04-24T09:39:17;10.50;1.00
8402;DHT22;4238;48.404;9.498;2023-04-24T09:41:46;11.00;1.00
8402;DHT22;4238;48.404;9.498;2023-04-24T09:44:15;11.20;99.90
8402;DHT22;4238;48.404;9.498;2023-04-24T09:46:48;11.10;1.00
8402;DHT22;4238;48.404;9.498;2023-04-24T09:49:16;11.30;99.90
8402;DHT22;4238;48.404;9.498;2023-04-24T09:51:43;11.70;1.00
8402;DHT22;4238;48.404;9.498;2023-04-24T09:54:15;11.80;1.00
8402;DHT22;4238;48.404;9.498;2023-04-24T09:56:47;11.80;99.90
8402;DHT22;4238;48.404;9.498;2023-04-24T09:59:17;12.00;1.00
8402;DHT22;4238;48.404;9.498;2023-04-24T10:01:46;12.20;1.00
8402;DHT22;4238;48.404;9.498;2023-04-24T10:04:19;12.40;99.90
8402;DHT22;4238;48.404;9.498;2023-04-24T10:06:47;13.00;99.90
8402;DHT22;4238;48.404;9.498;2023-04-24T10:09:15;13.40;99.90
8402;DHT22;4238;48.404;9.498;2023-04-24T10:11:44;13.40;99.90
8402;DHT22;4238;48.404;9.498;2023-04-24T10:14:13;12.70;99.90
8402;DHT22;4238;48.404;9.498;2023-04-24T10:16:41;12.00;99.90
8402;DHT22;4238;48.404;9.498;2023-04-24T10:19:10;11.30;99.90
8402;DHT22;4238;48.404;9.498;2023-04-24T10:21:40;11.20;1.00
8402;DHT22;4238;48.404;9.498;2023-04-24T10:24:12;11.20;99.90
8402;DHT22;4238;48.404;9.498;2023-04-24T10:26:40;11.30;1.00
8402;DHT22;4238;48.404;9.498;2023-04-24T10:29:08;11.40;1.00
8402;DHT22;4238;48.404;9.498;2023-04-24T10:31:37;11.50;1.00
8402;DHT22;4238;48.404;9.498;2023-04-24T10:34:05;11.50;1.00
8402;DHT22;4238;48.404;9.498;2023-04-24T10:36:34;11.30;99.90
8402;DHT22;4238;48.404;9.498;2023-04-24T10:39:04;11.60;99.90
8402;DHT22;4238;48.404;9.498;2023-04-24T10:41:33;12.30;1.00
8402;DHT22;4238;48.404;9.498;2023-04-24T10:44:07;12.40;1.00
8402;DHT22;4238;48.404;9.498;2023-04-24T10:46:35;12.70;1.00
8402;DHT22;4238;48.404;9.498;2023-04-24T10:49:04;13.20;48.60
8402;DHT22;4238;48.404;9.498;2023-04-24T10:51:48;13.60;1.00
8402;DHT22;4238;48.404;9.498;2023-04-24T10:54:23;12.90;99.90
8402;DHT22;4238;48.404;9.498;2023-04-24T10:56:51;13.00;1.00
8402;DHT22;4238;48.404;9.498;2023-04-24T10:59:25;13.40;99.90
8402;DHT22;4238;48.404;9.498;2023-04-24T11:01:55;13.70;1.00
8402;DHT22;4238;48.404;9.498;2023-04-24T11:04:32;14.10;99.90
8402;DHT22;4238;48.404;9.498;2023-04-24T11:07:02;13.90;99.90
8402;DHT22;4238;48.404;9.498;2023-04-24T11:09:31;13.60;1.00
8402;DHT22;4238;48.404;9.498;2023-04-24T11:12:05;13.30;1.00
8402;DHT22;4238;48.404;9.498;2023-04-24T11:15:00;12.70;1.00
8402;DHT22;4238;48.404;9.498;2023-04-24T11:17:29;12.00;1.00
8402;DHT22;4238;48.404;9.498;2023-04-24T11:20:01;11.90;1.00
8402;DHT22;4238;48.404;9.498;2023-04-24T11:22:33;11.90;99.90
8402;DHT22;4238;48.404;9.498;2023-04-24T11:25:01;12.10;29.60
8402;DHT22;4238;48.404;9.498;2023-04-24T11:27:30;12.30;1.00
8402;DHT22;4238;48.404;9.498;2023-04-24T11:30:03;13.00;99.90
8402;DHT22;4238;48.404;9.498;2023-04-24T11:32:34;13.30;14.30
8402;DHT22;4238;48.404;9.498;2023-04-24T11:35:03;12.80;1.00
8402;DHT22;4238;48.404;9.498;2023-04-24T11:37:35;12.10;99.90
8402;DHT22;4238;48.404;9.498;2023-04-24T11:40:04;11.70;1.00
8402;DHT22;4238;48.404;9.498;2023-04-24T11:42:34;11.30;1.00
8402;DHT22;4238;48.404;9.498;2023-04-24T11:45:01;11.10;1.00
8402;DHT22;4238;48.404;9.498;2023-04-24T11:47:29;10.90;1.00
8402;DHT22;4238;48.404;9.498;2023-04-24T11:49:58;10.80;1.00
8402;DHT22;4238;48.404;9.498;2023-04-24T11:52:25;10.70;22.60
8402;DHT22;4238;48.404;9.498;2023-04-24T11:54:54;10.60;99.90
8402;DHT22;4238;48.404;9.498;2023-04-24T11:57:21;10.60;99.90
8402;DHT22;4238;48.404;9.498;2023-04-24T11:59:49;10.60;99.90
8402;DHT22;4238;48.404;9.498;2023-04-24T12:02:22;10.70;1.00
8402;DHT22;4238;48.404;9.498;2023-04-24T12:04:50;11.10;1.00
8402;DHT22;4238;48.404;9.498;2023-04-24T12:07:17;11.30;99.90
8402;DHT22;4238;48.404;9.498;2023-04-24T12:09:46;11.20;99.90
8402;DHT22;4238;48.404;9.498;2023-04-24T12:12:16;11.10;1.00
8402;DHT22;4238;48.404;9.498;2023-04-24T12:14:47;11.00;1.00
8402;DHT22;4238;48.404;9.498;2023-04-24T12:17:15;10.80;1.00
8402;DHT22;4238;48.404;9.498;2023-04-24T12:19:46;10.70;1.00
8402;DHT22;4238;48.404;9.498;2023-04-24T12:22:14;10.70;1.00
8402;DHT22;4238;48.404;9.498;2023-04-24T12:24:57;10.50;1.00
8402;DHT22;4238;48.404;9.498;2023-04-24T12:27:28;10.40;99.90
8402;DHT22;4238;48.404;9.498;2023-04-24T12:29:56;10.30;99.90
8402;DHT22;4238;48.404;9.498;2023-04-24T12:32:23;10.20;99.90
8402;DHT22;4238;48.404;9.498;2023-04-24T12:34:51;10.20;1.00
8402;DHT22;4238;48.404;9.498;2023-04-24T12:37:19;10.10;1.00
8402;DHT22;4238;48.404;9.498;2023-04-24T12:39:59;10.00;99.90
8402;DHT22;4238;48.404;9.498;2023-04-24T12:42:28;9.90;1.00
8402;DHT22;4238;48.404;9.498;2023-04-24T12:44:59;9.90;57.40
8402;DHT22;4238;48.404;9.498;2023-04-24T12:47:27;9.90;99.90
8402;DHT22;4238;48.404;9.498;2023-04-24T12:49:54;10.00;99.90
8402;DHT22;4238;48.404;9.498;2023-04-24T12:52:21;10.10;99.90
8402;DHT22;4238;48.404;9.498;2023-04-24T12:54:49;10.10;1.00
8402;DHT22;4238;48.404;9.498;2023-04-24T12:57:16;10.00;1.00
8402;DHT22;4238;48.404;9.498;2023-04-24T12:59:45;9.90;1.00
8402;DHT22;4238;48.404;9.498;2023-04-24T13:02:12;9.80;17.90
8402;DHT22;4238;48.404;9.498;2023-04-24T13:04:39;9.80;99.90
8402;DHT22;4238;48.404;9.498;2023-04-24T13:07:06;9.60;99.90
8402;DHT22;4238;48.404;9.498;2023-04-24T13:09:34;9.60;99.90
8402;DHT22;4238;48.404;9.498;2023-04-24T13:12:01;9.50;8.50
8402;DHT22;4238;48.404;9.498;2023-04-24T13:14:28;9.50;99.90
8402;DHT22;4238;48.404;9.498;2023-04-24T13:16:57;9.70;99.90
8402;DHT22;4238;48.404;9.498;2023-04-24T13:19:24;10.00;1.00
8402;DHT22;4238;48.404;9.498;2023-04-24T13:21:52;10.60;1.00
8402;DHT22;4238;48.404;9.498;2023-04-24T13:24:19;11.00;99.90
8402;DHT22;4238;48.404;9.498;2023-04-24T13:26:46;11.10;99.90
8402;DHT22;4238;48.404;9.498;2023-04-24T13:29:13;11.20;99.90
8402;DHT22;4238;48.404;9.498;2023-04-24T13:31:40;11.30;99.90
8402;DHT22;4238;48.404;9.498;2023-04-24T13:34:08;11.60;1.00
8402;DHT22;4238;48.404;9.498;2023-04-24T13:36:35;11.90;1.00
8402;DHT22;4238;48.404;9.498;2023-04-24T13:39:02;12.20;1.00
8402;DHT22;4238;48.404;9.498;2023-04-24T13:41:29;12.20;99.90
8402;DHT22;4238;48.404;9.498;2023-04-24T13:43:56;12.20;99.90
8402;DHT22;4238;48.404;9.498;2023-04-24T13:46:23;12.30;11.30
8402;DHT22;4238;48.404;9.498;2023-04-24T13:48:50;12.60;67.20
8402;DHT22;4238;48.404;9.498;2023-04-24T13:51:19;12.80;1.00
8402;DHT22;4238;48.404;9.498;2023-04-24T13:53:46;13.00;1.00
8402;DHT22;4238;48.404;9.498;2023-04-24T13:56:13;12.80;99.90
8402;DHT22;4238;48.404;9.498;2023-04-24T13:58:40;12.70;99.90
8402;DHT22;4238;48.404;9.498;2023-04-24T14:01:07;12.50;99.90
8402;DHT22;4238;48.404;9.498;2023-04-24T14:03:34;12.20;99.90
8402;DHT22;4238;48.404;9.498;2023-04-24T14:06:01;11.90;99.90
8402;DHT22;4238;48.404;9.498;2023-04-24T14:08:29;11.60;99.90
8402;DHT22;4238;48.404;9.498;2023-04-24T14:10:57;11.50;99.90
8402;DHT22;4238;48.404;9.498;2023-04-24T14:13:24;11.30;1.00
8402;DHT22;4238;48.404;9.498;2023-04-24T14:15:51;11.30;1.00
8402;DHT22;4238;48.404;9.498;2023-04-24T14:18:19;11.30;1.00
8402;DHT22;4238;48.404;9.498;2023-04-24T14:20:46;11.30;1.00
8402;DHT22;4238;48.404;9.498;2023-04-24T14:23:13;11.20;1.00
8402;DHT22;4238;48.404;9.498;2023-04-24T14:25:41;11.30;1.00
8402;DHT22;4238;48.404;9.498;2023-04-24T14:28:09;11.30;1.00
8402;DHT22;4238;48.404;9.498;2023-04-24T14:30:36;11.20;99.90
8402;DHT22;4238;48.404;9.498;2023-04-24T14:33:06;11.10;99.90
8402;DHT22;4238;48.404;9.498;2023-04-24T14:35:33;11.00;1.00
8402;DHT22;4238;48.404;9.498;2023-04-24T14:38:00;10.90;1.00
8402;DHT22;4238;48.404;9.498;2023-04-24T14:40:27;10.90;99.90
8402;DHT22;4238;48.404;9.498;2023-04-24T14:42:55;10.90;99.90
8402;DHT22;4238;48.404;9.498;2023-04-24T14:45:23;10.80;99.90
8402;DHT22;4238;48.404;9.498;2023-04-24T14:47:50;10.80;99.90
8402;DHT22;4238;48.404;9.498;2023-04-24T14:50:17;10.80;1.00
8402;DHT22;4238;48.404;9.498;2023-04-24T14:52:44;10.90;1.00
8402;DHT22;4238;48.404;9.498;2023-04-24T14:55:11;11.00;1.00
8402;DHT22;4238;48.404;9.498;2023-04-24T14:57:39;11.10;1.00
8402;DHT22;4238;48.404;9.498;2023-04-24T15:00:08;11.00;1.00
8402;DHT22;4238;48.404;9.498;2023-04-24T15:02:36;11.10;1.00
8402;DHT22;4238;48.404;9.498;2023-04-24T15:05:07;11.20;1.00
8402;DHT22;4238;48.404;9.498;2023-04-24T15:07:34;11.10;1.00
8402;DHT22;4238;48.404;9.498;2023-04-24T15:10:02;11.20;1.00
8402;DHT22;4238;48.404;9.498;2023-04-24T15:12:29;11.20;1.00
8402;DHT22;4238;48.404;9.498;2023-04-24T15:14:57;11.00;1.00
8402;DHT22;4238;48.404;9.498;2023-04-24T15:17:26;10.90;1.00
8402;DHT22;4238;48.404;9.498;2023-04-24T15:19:53;10.90;1.00
8402;DHT22;4238;48.404;9.498;2023-04-24T15:22:20;10.90;1.00
8402;DHT22;4238;48.404;9.498;2023-04-24T15:24:47;10.70;1.00
8402;DHT22;4238;48.404;9.498;2023-04-24T15:27:14;10.80;1.00
8402;DHT22;4238;48.404;9.498;2023-04-24T15:29:41;10.70;5.90
8402;DHT22;4238;48.404;9.498;2023-04-24T15:32:08;10.80;99.90
8402;DHT22;4238;48.404;9.498;2023-04-24T15:34:37;10.70;99.90
8402;DHT22;4238;48.404;9.498;2023-04-24T15:37:04;10.60;99.90
8402;DHT22;4238;48.404;9.498;2023-04-24T15:39:31;10.70;99.90
8402;DHT22;4238;48.404;9.498;2023-04-24T15:41:58;10.70;69.50
8402;DHT22;4238;48.404;9.498;2023-04-24T15:44:25;10.80;1.00
8402;DHT22;4238;48.404;9.498;2023-04-24T15:46:52;10.70;99.90
8402;DHT22;4238;48.404;9.498;2023-04-24T15:49:19;10.80;99.90
8402;DHT22;4238;48.404;9.498;2023-04-24T15:51:47;10.90;99.90
8402;DHT22;4238;48.404;9.498;2023-04-24T15:54:14;10.90;99.90
8402;DHT22;4238;48.404;9.498;2023-04-24T15:56:41;10.90;19.20
8402;DHT22;4238;48.404;9.498;2023-04-24T15:59:09;10.90;99.90
8402;DHT22;4238;48.404;9.498;2023-04-24T16:01:36;10.90;99.90
8402;DHT22;4238;48.404;9.498;2023-04-24T16:04:03;10.80;1.00
8402;DHT22;4238;48.404;9.498;2023-04-24T16:06:30;11.20;65.50
8402;DHT22;4238;48.404;9.498;2023-04-24T16:08:58;11.50;1.00
8402;DHT22;4238;48.404;9.498;2023-04-24T16:11:25;11.50;1.00
8402;DHT22;4238;48.404;9.498;2023-04-24T16:13:52;11.30;1.00
8402;DHT22;4238;48.404;9.498;2023-04-24T16:16:19;11.20;1.00
8402;DHT22;4238;48.404;9.498;2023-04-24T16:18:46;11.00;1.00
8402;DHT22;4238;48.404;9.498;2023-04-24T16:21:14;10.90;1.00
8402;DHT22;4238;48.404;9.498;2023-04-24T16:23:41;10.90;1.00
8402;DHT22;4238;48.404;9.498;2023-04-24T16:26:09;10.80;1.00
8402;DHT22;4238;48.404;9.498;2023-04-24T16:28:36;10.90;1.00
8402;DHT22;4238;48.404;9.498;2023-04-24T16:31:03;11.00;1.00
8402;DHT22;4238;48.404;9.498;2023-04-24T16:33:31;11.30;15.70
8402;DHT22;4238;48.404;9.498;2023-04-24T16:35:58;11.50;1.00
8402;DHT22;4238;48.404;9.498;2023-04-24T16:38:25;11.50;1.00
8402;DHT22;4238;48.404;9.498;2023-04-24T16:40:52;11.50;1.00
8402;DHT22;4238;48.404;9.498;2023-04-24T16:43:20;11.50;1.00
8402;DHT22;4238;48.404;9.498;2023-04-24T16:45:47;11.50;1.00
8402;DHT22;4238;48.404;9.498;2023-04-24T16:48:14;11.70;1.00
8402;DHT22;4238;48.404;9.498;2023-04-24T16:50:41;11.80;1.00
8402;DHT22;4238;48.404;9.498;2023-04-24T16:53:08;11.90;1.00
8402;DHT22;4238;48.404;9.498;2023-04-24T16:55:35;12.00;99.90
8402;DHT22;4238;48.404;9.498;2023-04-24T16:58:02;12.00;99.90
8402;DHT22;4238;48.404;9.498;2023-04-24T17:00:30;11.80;99.90
8402;DHT22;4238;48.404;9.498;2023-04-24T17:02:57;11.60;99.90
8402;DHT22;4238;48.404;9.498;2023-04-24T17:05:24;11.50;99.90
8402;DHT22;4238;48.404;9.498;2023-04-24T17:07:51;11.30;99.90
8402;DHT22;4238;48.404;9.498;2023-04-24T17:10:18;11.30;1.00
8402;DHT22;4238;48.404;9.498;2023-04-24T17:12:45;11.20;1.00
8402;DHT22;4238;48.404;9.498;2023-04-24T17:15:11;11.10;1.00
8402;DHT22;4238;48.404;9.498;2023-04-24T17:17:40;10.90;1.00
8402;DHT22;4238;48.404;9.498;2023-04-24T17:20:09;10.70;1.00
8402;DHT22;4238;48.404;9.498;2023-04-24T17:22:36;10.60;1.00
8402;DHT22;4238;48.404;9.498;2023-04-24T17:25:03;10.50;1.00
8402;DHT22;4238;48.404;9.498;2023-04-24T17:27:30;10.40;1.00
8402;DHT22;4238;48.404;9.498;2023-04-24T17:29:58;10.30;31.30
8402;DHT22;4238;48.404;9.498;2023-04-24T17:32:24;10.20;99.90
8402;DHT22;4238;48.404;9.498;2023-04-24T17:34:53;10.10;99.90
8402;DHT22;4238;48.404;9.498;2023-04-24T17:37:19;10.00;99.90
8402;DHT22;4238;48.404;9.498;2023-04-24T17:39:48;10.00;99.90
8402;DHT22;4238;48.404;9.498;2023-04-24T17:42:15;9.90;1.00
8402;DHT22;4238;48.404;9.498;2023-04-24T17:44:42;9.90;1.00
8402;DHT22;4238;48.404;9.498;2023-04-24T17:47:09;9.80;1.00
8402;DHT22;4238;48.404;9.498;2023-04-24T17:49:36;9.70;1.00
8402;DHT22;4238;48.404;9.498;2023-04-24T17:52:04;9.70;22.80
8402;DHT22;4238;48.404;9.498;2023-04-24T17:54:31;9.70;99.90
8402;DHT22;4238;48.404;9.498;2023-04-24T17:56:58;9.70;1.00
8402;DHT22;4238;48.404;9.498;2023-04-24T17:59:26;9.70;1.00
8402;DHT22;4238;48.404;9.498;2023-04-24T18:01:53;9.60;99.90
8402;DHT22;4238;48.404;9.498;2023-04-24T18:04:21;9.40;1.00
8402;DHT22;4238;48.404;9.498;2023-04-24T18:06:50;9.40;99.90
8402;DHT22;4238;48.404;9.498;2023-04-24T18:09:18;9.40;99.90
8402;DHT22;4238;48.404;9.498;2023-04-24T18:11:46;9.40;99.90
8402;DHT22;4238;48.404;9.498;2023-04-24T18:14:14;9.30;99.90
8402;DHT22;4238;48.404;9.498;2023-04-24T18:16:41;9.10;1.00
8402;DHT22;4238;48.404;9.498;2023-04-24T18:19:08;9.00;1.00
8402;DHT22;4238;48.404;9.498;2023-04-24T18:21:35;8.90;1.00
8402;DHT22;4238;48.404;9.498;2023-04-24T18:24:02;9.00;1.00
8402;DHT22;4238;48.404;9.498;2023-04-24T18:26:30;8.90;99.90
8402;DHT22;4238;48.404;9.498;2023-04-24T18:28:57;9.00;99.90
8402;DHT22;4238;48.404;9.498;2023-04-24T18:31:24;9.00;64.30
8402;DHT22;4238;48.404;9.498;2023-04-24T18:33:51;9.00;99.90
8402;DHT22;4238;48.404;9.498;2023-04-24T18:36:20;9.00;1.00
8402;DHT22;4238;48.404;9.498;2023-04-24T18:38:47;9.00;1.00
8402;DHT22;4238;48.404;9.498;2023-04-24T18:41:14;9.00;99.90
8402;DHT22;4238;48.404;9.498;2023-04-24T18:43:42;8.90;99.90
8402;DHT22;4238;48.404;9.498;2023-04-24T18:46:09;9.00;99.90
8402;DHT22;4238;48.404;9.498;2023-04-24T18:48:36;8.90;1.00
8402;DHT22;4238;48.404;9.498;2023-04-24T18:51:03;8.90;99.90
8402;DHT22;4238;48.404;9.498;2023-04-24T18:53:29;8.80;1.00
8402;DHT22;4238;48.404;9.498;2023-04-24T18:55:56;8.80;1.00
8402;DHT22;4238;48.404;9.498;2023-04-24T18:58:23;8.80;99.90
8402;DHT22;4238;48.404;9.498;2023-04-24T19:00:52;8.70;99.90
8402;DHT22;4238;48.404;9.498;2023-04-24T19:03:19;8.60;1.00
8402;DHT22;4238;48.404;9.498;2023-04-24T19:05:46;8.50;1.00
8402;DHT22;4238;48.404;9.498;2023-04-24T19:08:12;8.60;99.90
8402;DHT22;4238;48.404;9.498;2023-04-24T19:10:39;8.50;1.00
8402;DHT22;4238;48.404;9.498;2023-04-24T19:13:06;8.50;1.00
8402;DHT22;4238;48.404;9.498;2023-04-24T19:15:33;8.60;1.00
8402;DHT22;4238;48.404;9.498;2023-04-24T19:18:01;8.50;1.00
8402;DHT22;4238;48.404;9.498;2023-04-24T19:20:28;8.60;4.90
8402;DHT22;4238;48.404;9.498;2023-04-24T19:22:55;8.60;1.00
8402;DHT22;4238;48.404;9.498;2023-04-24T19:25:22;8.60;99.90
8402;DHT22;4238;48.404;9.498;2023-04-24T19:27:49;8.60;99.90
8402;DHT22;4238;48.404;9.498;2023-04-24T19:30:16;8.60;1.00
8402;DHT22;4238;48.404;9.498;2023-04-24T19:32:43;8.60;1.00
8402;DHT22;4238;48.404;9.498;2023-04-24T19:35:11;8.60;1.00
8402;DHT22;4238;48.404;9.498;2023-04-24T19:37:38;8.60;1.00
8402;DHT22;4238;48.404;9.498;2023-04-24T19:40:06;8.60;1.00
8402;DHT22;4238;48.404;9.498;2023-04-24T19:42:33;8.60;99.90
8402;DHT22;4238;48.404;9.498;2023-04-24T19:45:00;8.60;1.00
8402;DHT22;4238;48.404;9.498;2023-04-24T19:47:27;8.50;99.90
8402;DHT22;4238;48.404;9.498;2023-04-24T19:49:54;8.50;99.90
8402;DHT22;4238;48.404;9.498;2023-04-24T19:52:23;8.50;99.90
8402;DHT22;4238;48.404;9.498;2023-04-24T19:54:49;8.50;1.00
8402;DHT22;4238;48.404;9.498;2023-04-24T19:57:17;8.50;1.00
8402;DHT22;4238;48.404;9.498;2023-04-24T19:59:44;8.50;1.00
8402;DHT22;4238;48.404;9.498;2023-04-24T20:02:11;8.40;1.00
8402;DHT22;4238;48.404;9.498;2023-04-24T20:04:38;8.40;1.00
8402;DHT22;4238;48.404;9.498;2023-04-24T20:07:06;8.50;1.00
8402;DHT22;4238;48.404;9.498;2023-04-24T20:09:34;8.40;1.00
8402;DHT22;4238;48.404;9.498;2023-04-24T20:12:01;8.30;1.00
8402;DHT22;4238;48.404;9.498;2023-04-24T20:14:28;8.40;1.00
8402;DHT22;4238;48.404;9.498;2023-04-24T20:16:56;8.30;1.00
8402;DHT22;4238;48.404;9.498;2023-04-24T20:19:23;8.30;1.00
8402;DHT22;4238;48.404;9.498;2023-04-24T20:21:50;8.20;1.00